Palatine — 9HA2152 — position and weather

sailwx.info

Track history (hours):
 
Tides and Currents Weather Stations Pressure Air Temp Water Temp Dewpoint Dewpoint Depression Visibility Wind Speed Wind Dir Waves Ship Positions

Palatine

Last reported at 2017-Nov-20 00:27 UTC. Time now 2017-Nov-20 13:51 UTC.
Position N 43°27' W 003°49'.

Length 194 m; draft 6.7 m.

Type: Ship. MMSI: 248064000.

Date/timePositionNaut miles runAvg speedWind from/ knotsBaromVisibWave heightAir tempDewpointWater temp
2017-Nov-20 00:27N 43°27' W 003°49'0 0.0
2017-Nov-19 23:51N 43°27' W 003°49'0 0.0
2017-Nov-19 23:20N 43°27' W 003°49'0 0.0
2017-Nov-19 22:50N 43°27' W 003°49'0 0.0
2017-Nov-19 22:20N 43°27' W 003°49'0 0.0
2017-Nov-19 21:56N 43°27' W 003°49'0 0.0
2017-Nov-19 21:26N 43°27' W 003°49'1 1.4
2017-Nov-19 21:01N 43°27' W 003°48'4 7.8
2017-Nov-19 20:30N 43°31' W 003°45'714.6
2017-Nov-19 20:00N 43°34' W 003°54'714.8
2017-Nov-19 19:30N 43°36' W 004°04'815.3
2017-Nov-19 19:00N 43°37' W 004°14'816.0
2017-Nov-19 18:30N 43°38' W 004°25'815.7
2017-Nov-19 18:00N 43°40' W 004°36'815.8
2017-Nov-19 17:30N 43°40' W 004°47'815.9
2017-Nov-19 17:00N 43°41' W 004°58'815.8
2017-Nov-19 16:30N 43°42' W 005°09'8515.7
2017-Nov-19 11:04N 43°50' W 007°06'115.6
2017-Nov-19 10:58N 43°50' W 007°08'715.5
2017-Nov-19 10:30N 43°50' W 007°18'815.9
2017-Nov-19 10:00N 43°51' W 007°29'815.8
2017-Nov-19 09:30N 43°51' W 007°40'815.7
2017-Nov-19 09:00N 43°51' W 007°51'814.8
2017-Nov-19 08:30N 43°50' W 008°02'915.0
2017-Nov-19 07:53N 43°49' W 008°14'815.1
2017-Nov-19 07:22N 43°46' W 008°24'615.4
2017-Nov-19 06:58N 43°44' W 008°32'715.6
2017-Nov-19 06:30N 43°41' W 008°42'816.3
2017-Nov-19 06:00N 43°38' W 008°52'2816.6
2017-Nov-19 04:18N 43°27' W 009°28'516.0
2017-Nov-19 03:58N 43°24' W 009°34'2915.5
2017-Nov-19 02:07N 42°57' W 009°46'10716.6
2017-Nov-18 19:40N 41°18' W 008°50'316.8
2017-Nov-18 19:30N 41°16' W 008°48'714.4
2017-Nov-18 19:01N 41°10' W 008°42'1 1.4
2017-Nov-18 18:30N 41°11' W 008°42'0 0.0
2017-Nov-18 17:58N 41°11' W 008°42'0 0.0
2017-Nov-18 17:28N 41°11' W 008°42'0 0.0
2017-Nov-18 16:58N 41°11' W 008°42'0 0.0
2017-Nov-18 16:28N 41°11' W 008°42'0 0.0
2017-Nov-18 15:57N 41°11' W 008°42'0 0.0
2017-Nov-18 15:27N 41°11' W 008°42'0 0.0
2017-Nov-18 14:57N 41°11' W 008°42'0 0.0
2017-Nov-18 14:27N 41°11' W 008°42'0 0.0
2017-Nov-18 13:56N 41°11' W 008°42'0 0.0
2017-Nov-18 13:26N 41°11' W 008°42'0 0.0
2017-Nov-18 12:56N 41°11' W 008°42'0 0.0
2017-Nov-18 12:26N 41°11' W 008°42'0 0.0
2017-Nov-18 11:56N 41°11' W 008°42'0 0.0
2017-Nov-18 11:25N 41°11' W 008°42'0 0.0
2017-Nov-18 10:55N 41°11' W 008°42'0 0.0
2017-Nov-18 10:25N 41°11' W 008°42'0 0.0
2017-Nov-18 09:55N 41°11' W 008°42'0 0.0
2017-Nov-18 09:25N 41°11' W 008°42'0 0.0
2017-Nov-18 09:00N 41°11' W 008°42'0 0.0
2017-Nov-18 08:30N 41°11' W 008°42'0 0.0
2017-Nov-18 08:00N 41°11' W 008°42'0 0.0
2017-Nov-18 07:30N 41°11' W 008°42'0 0.0
2017-Nov-18 07:00N 41°11' W 008°42'0 0.0
2017-Nov-18 06:30N 41°11' W 008°42'2 3.9
2017-Nov-18 06:01N 41°10' W 008°44'816.4
2017-Nov-18 05:31N 41°17' W 008°51'52114.1
2017-Nov-16 16:30N 49°24' W 004°28'5515.2
2017-Nov-16 12:51N 49°52' W 003°15'618.1
2017-Nov-16 12:30N 49°56' W 003°06'918.0
2017-Nov-16 12:00N 49°60' W 002°54'1118.1
2017-Nov-16 11:23N 50°03' W 002°37'2217.3
2017-Nov-16 10:07N 50°10' W 002°04'216.8
2017-Nov-16 10:00N 50°10' W 002°02'816.3
2017-Nov-16 09:30N 50°12' W 001°49'815.5
2017-Nov-16 09:00N 50°14' W 001°38'714.7
2017-Nov-16 08:31N 50°16' W 001°27'2313.6
2017-Nov-16 06:48N 50°24' W 000°52'913.3
2017-Nov-16 06:08N 50°26' W 000°39'213.8
2017-Nov-16 05:59N 50°26' W 000°35'714.0
2017-Nov-16 05:30N 50°27' W 000°25'714.9
2017-Nov-16 05:00N 50°29' W 000°14'815.8
2017-Nov-16 04:30N 50°31' W 000°02'816.5
2017-Nov-16 04:00N 50°33' E 000°11'917.1
2017-Nov-16 03:30N 50°35' E 000°24'917.3
2017-Nov-16 03:01N 50°38' E 000°36'917.4
2017-Nov-16 02:30N 50°44' E 000°47'917.2
2017-Nov-16 02:00N 50°49' E 000°58'816.7
2017-Nov-16 01:30N 50°54' E 001°09'816.0
2017-Nov-16 01:00N 50°59' E 001°18'815.3
2017-Nov-16 00:30N 51°04' E 001°28'714.0
2017-Nov-16 00:00N 51°08' E 001°37'713.5
2017-Nov-15 23:30N 51°13' E 001°44'714.0
2017-Nov-15 23:00N 51°19' E 001°50'714.7
2017-Nov-15 22:30N 51°25' E 001°56'815.2
2017-Nov-15 22:00N 51°31' E 002°05'6415.6
2017-Nov-15 17:54N 52°03' E 003°34'716.8
2017-Nov-15 17:30N 52°02' E 003°45'815.9
2017-Nov-15 17:00N 52°02' E 003°58'714.1
2017-Nov-15 16:30N 51°58' E 004°07'4 8.6
2017-Nov-15 16:00N 51°55' E 004°13'2 3.5
2017-Nov-15 15:30N 51°54' E 004°14'0 0.2
2017-Nov-15 15:00N 51°54' E 004°14'0 0.0
2017-Nov-15 14:30N 51°54' E 004°14'0 0.0
2017-Nov-15 13:54N 51°54' E 004°14'0 0.0
2017-Nov-15 13:23N 51°54' E 004°14'0 0.0
2017-Nov-15 12:59N 51°54' E 004°14'0 0.0
2017-Nov-15 12:29N 51°54' E 004°14'0 0.0
2017-Nov-15 11:59N 51°54' E 004°14'0 0.0
2017-Nov-15 11:28N 51°54' E 004°14'0 0.0
2017-Nov-15 10:58N 51°54' E 004°14'0 0.0
2017-Nov-15 10:28N 51°54' E 004°14'0 0.0
2017-Nov-15 09:52N 51°54' E 004°14'0 0.0
2017-Nov-15 09:15N 51°54' E 004°14'0 0.0
2017-Nov-15 08:51N 51°54' E 004°14'0 0.0
2017-Nov-15 08:23N 51°54' E 004°14'0 0.0
2017-Nov-15 07:57N 51°54' E 004°14'0 0.0
2017-Nov-15 07:27N 51°54' E 004°14'0 0.0
2017-Nov-15 06:50N 51°54' E 004°14'0 0.0
2017-Nov-15 06:26N 51°54' E 004°14'0 0.0
2017-Nov-15 05:56N 51°54' E 004°14'0 0.0
2017-Nov-15 05:26N 51°54' E 004°14'0 0.0
2017-Nov-15 04:56N 51°54' E 004°14'0 0.0
2017-Nov-15 04:25N 51°54' E 004°14'0 0.0
2017-Nov-15 03:55N 51°54' E 004°14'0 0.0
2017-Nov-15 03:25N 51°54' E 004°14'0 0.0
2017-Nov-15 03:01N 51°54' E 004°14'1 1.6
2017-Nov-15 02:30N 51°54' E 004°14'4 7.9
2017-Nov-15 02:00N 51°57' E 004°09'612.7
2017-Nov-15 01:30N 51°60' E 003°60'713.8
2017-Nov-15 01:00N 51°59' E 003°48'815.0
2017-Nov-15 00:29N 51°58' E 003°36'816.0
2017-Nov-14 23:59N 51°56' E 003°24'4815.8
2017-Nov-14 20:59N 51°31' E 002°18'817.2
2017-Nov-14 20:30N 51°24' E 002°11'816.6
2017-Nov-14 20:00N 51°17' E 002°06'917.6
2017-Nov-14 19:30N 51°11' E 001°55'917.7
2017-Nov-14 19:00N 51°06' E 001°44'816.9
2017-Nov-14 18:30N 51°00' E 001°34'2116.1
2017-Nov-14 17:11N 50°42' E 001°17'1217.1
2017-Nov-14 16:28N 50°33' E 001°04'917.3
2017-Nov-14 15:57N 50°28' E 000°51'917.7
2017-Nov-14 15:27N 50°26' E 000°38'1017.5
2017-Nov-14 14:54N 50°24' E 000°24'717.3
2017-Nov-14 14:30N 50°22' E 000°13'917.1
2017-Nov-14 14:00N 50°20' E 000°00'916.9
2017-Nov-14 13:30N 50°18' W 000°13'2316.3
2017-Nov-14 12:06N 50°13' W 000°48'215.7
2017-Nov-14 11:59N 50°13' W 000°51'715.6
2017-Nov-14 11:30N 50°11' W 001°02'815.4
2017-Nov-14 11:00N 50°09' W 001°13'815.2
2017-Nov-14 10:30N 50°07' W 001°25'815.5
2017-Nov-14 09:59N 50°04' W 001°37'715.5
2017-Nov-14 09:30N 50°02' W 001°48'815.8
2017-Nov-14 09:00N 49°59' W 001°59'2016.8
2017-Nov-14 07:50N 49°53' W 002°28'817.5
2017-Nov-14 07:23N 49°51' W 002°40'717.4
2017-Nov-14 07:00N 49°49' W 002°50'1117.6
2017-Nov-14 06:23N 49°43' W 003°04'817.5
2017-Nov-14 05:55N 49°40' W 003°16'817.7
2017-Nov-14 05:29N 49°36' W 003°26'917.6
2017-Nov-14 04:58N 49°32' W 003°39'817.5
2017-Nov-14 04:30N 49°28' W 003°50'917.7
2017-Nov-14 04:00N 49°23' W 004°00'917.7
2017-Nov-14 03:30N 49°17' W 004°12'917.9
2017-Nov-14 03:00N 49°12' W 004°23'918.2
2017-Nov-14 02:29N 49°07' W 004°35'918.0
2017-Nov-14 02:00N 49°03' W 004°47'1018.3
2017-Nov-14 01:27N 48°59' W 005°01'918.3
2017-Nov-14 00:56N 48°54' W 005°13'1218.4
2017-Nov-14 00:16N 48°48' W 005°29'618.0
2017-Nov-13 23:56N 48°45' W 005°37'918.3
2017-Nov-13 23:27N 48°36' W 005°42'1017.1
2017-Nov-13 22:53N 48°27' W 005°46'1316.3
2017-Nov-13 22:04N 48°14' W 005°41'216.0
2017-Nov-13 21:56N 48°12' W 005°40'29514.7
2017-Nov-13 01:48N 43°27' W 003°49'0 0.0
2017-Nov-13 01:18N 43°27' W 003°49'0 0.0
2017-Nov-13 00:54N 43°27' W 003°49'0 0.0
2017-Nov-13 00:17N 43°27' W 003°49'0 0.0
2017-Nov-12 23:59N 43°27' W 003°49'0 0.0
2017-Nov-12 23:29N 43°27' W 003°49'0 0.0
2017-Nov-12 22:59N 43°27' W 003°49'0 0.0
2017-Nov-12 22:23N 43°27' W 003°49'0 0.0
2017-Nov-12 21:40N 43°27' W 003°49'0 0.0
2017-Nov-12 21:30N 43°27' W 003°49'0 0.9
2017-Nov-12 21:00N 43°27' W 003°48'4 7.1
2017-Nov-12 20:30N 43°30' W 003°45'714.2
2017-Nov-12 20:00N 43°33' W 003°54'816.7
2017-Nov-12 19:30N 43°35' W 004°05'816.7
2017-Nov-12 19:00N 43°36' W 004°16'12216.5
2017-Nov-12 11:35N 43°51' W 007°04'316.2
2017-Nov-12 11:26N 43°51' W 007°08'716.6
2017-Nov-12 11:00N 43°51' W 007°18'816.3
2017-Nov-12 10:30N 43°52' W 007°29'816.0
2017-Nov-12 10:00N 43°52' W 007°40'1016.2
2017-Nov-12 09:24N 43°52' W 007°53'715.6
2017-Nov-12 08:59N 43°51' W 008°02'15912.0
2017-Nov-11 19:41N 41°15' W 008°49'316.1
2017-Nov-11 19:31N 41°13' W 008°47'4 8.2
2017-Nov-11 19:01N 41°11' W 008°42'0 0.3
2017-Nov-11 18:26N 41°11' W 008°42'0 0.0
2017-Nov-11 17:55N 41°11' W 008°42'0 0.0
2017-Nov-11 17:25N 41°11' W 008°42'0 0.0
2017-Nov-11 16:55N 41°11' W 008°42'0 0.0
2017-Nov-11 16:25N 41°11' W 008°42'0 0.0
2017-Nov-11 15:55N 41°11' W 008°42'0 0.0
2017-Nov-11 15:30N 41°11' W 008°42'0 0.0
2017-Nov-11 15:00N 41°11' W 008°42'0 0.0
2017-Nov-11 14:30N 41°11' W 008°42'0 0.0
2017-Nov-11 14:00N 41°11' W 008°42'0 0.0
2017-Nov-11 13:29N 41°11' W 008°42'0 0.0
2017-Nov-11 12:59N 41°11' W 008°42'0 0.0
2017-Nov-11 12:29N 41°11' W 008°42'0 0.0
2017-Nov-11 11:59N 41°11' W 008°42'0 0.0
2017-Nov-11 11:29N 41°11' W 008°42'0 0.0
2017-Nov-11 10:58N 41°11' W 008°42'0 0.0
2017-Nov-11 10:28N 41°11' W 008°42'0 0.0
2017-Nov-11 10:00N 41°11' W 008°42'0 0.4
2017-Nov-11 09:30N 41°11' W 008°42'3 5.0
2017-Nov-11 09:00N 41°11' W 008°46'816.5
2017-Nov-11 08:31N 41°17' W 008°52'38915.2
2017-Nov-10 06:57N 47°36' W 006°47'915.4
2017-Nov-10 06:22N 47°44' W 006°40'915.3
2017-Nov-10 05:46N 47°52' W 006°34'415.3
2017-Nov-10 05:31N 47°55' W 006°31'915.5
2017-Nov-10 04:57N 48°03' W 006°25'715.7
2017-Nov-10 04:30N 48°09' W 006°20'1016.1
2017-Nov-10 03:54N 48°17' W 006°13'1916.8
2017-Nov-10 02:45N 48°34' W 005°59'2316.6
2017-Nov-10 01:21N 48°55' W 005°42'  
Track history (hours):
 
Tides and Currents Weather Stations Pressure Air Temp Water Temp Dewpoint Dewpoint Depression Visibility Wind Speed Wind Dir Waves Ship Positions

Palatine

Last reported at 2017-Nov-20 00:27 UTC. Time now 2017-Nov-20 13:51 UTC.
Position N 43°27' W 003°49'.

Length 194 m; draft 6.7 m.

Type: Ship. MMSI: 248064000.

Date/timePositionNaut miles runAvg speedWind from/ knotsBaromVisibWave heightAir tempDewpointWater temp
2017-Nov-20 00:27N 43°27' W 003°49'0 0.0
2017-Nov-19 23:51N 43°27' W 003°49'0 0.0
2017-Nov-19 23:20N 43°27' W 003°49'0 0.0
2017-Nov-19 22:50N 43°27' W 003°49'0 0.0
2017-Nov-19 22:20N 43°27' W 003°49'0 0.0
2017-Nov-19 21:56N 43°27' W 003°49'0 0.0
2017-Nov-19 21:26N 43°27' W 003°49'1 1.4
2017-Nov-19 21:01N 43°27' W 003°48'4 7.8
2017-Nov-19 20:30N 43°31' W 003°45'714.6
2017-Nov-19 20:00N 43°34' W 003°54'714.8
2017-Nov-19 19:30N 43°36' W 004°04'815.3
2017-Nov-19 19:00N 43°37' W 004°14'816.0
2017-Nov-19 18:30N 43°38' W 004°25'815.7
2017-Nov-19 18:00N 43°40' W 004°36'815.8
2017-Nov-19 17:30N 43°40' W 004°47'815.9
2017-Nov-19 17:00N 43°41' W 004°58'815.8
2017-Nov-19 16:30N 43°42' W 005°09'8515.7
2017-Nov-19 11:04N 43°50' W 007°06'115.6
2017-Nov-19 10:58N 43°50' W 007°08'715.5
2017-Nov-19 10:30N 43°50' W 007°18'815.9
2017-Nov-19 10:00N 43°51' W 007°29'815.8
2017-Nov-19 09:30N 43°51' W 007°40'815.7
2017-Nov-19 09:00N 43°51' W 007°51'814.8
2017-Nov-19 08:30N 43°50' W 008°02'915.0
2017-Nov-19 07:53N 43°49' W 008°14'815.1
2017-Nov-19 07:22N 43°46' W 008°24'615.4
2017-Nov-19 06:58N 43°44' W 008°32'715.6
2017-Nov-19 06:30N 43°41' W 008°42'816.3
2017-Nov-19 06:00N 43°38' W 008°52'2816.6
2017-Nov-19 04:18N 43°27' W 009°28'516.0
2017-Nov-19 03:58N 43°24' W 009°34'2915.5
2017-Nov-19 02:07N 42°57' W 009°46'10716.6
2017-Nov-18 19:40N 41°18' W 008°50'316.8
2017-Nov-18 19:30N 41°16' W 008°48'714.4
2017-Nov-18 19:01N 41°10' W 008°42'1 1.4
2017-Nov-18 18:30N 41°11' W 008°42'0 0.0
2017-Nov-18 17:58N 41°11' W 008°42'0 0.0
2017-Nov-18 17:28N 41°11' W 008°42'0 0.0
2017-Nov-18 16:58N 41°11' W 008°42'0 0.0
2017-Nov-18 16:28N 41°11' W 008°42'0 0.0
2017-Nov-18 15:57N 41°11' W 008°42'0 0.0
2017-Nov-18 15:27N 41°11' W 008°42'0 0.0
2017-Nov-18 14:57N 41°11' W 008°42'0 0.0
2017-Nov-18 14:27N 41°11' W 008°42'0 0.0
2017-Nov-18 13:56N 41°11' W 008°42'0 0.0
2017-Nov-18 13:26N 41°11' W 008°42'0 0.0
2017-Nov-18 12:56N 41°11' W 008°42'0 0.0
2017-Nov-18 12:26N 41°11' W 008°42'0 0.0
2017-Nov-18 11:56N 41°11' W 008°42'0 0.0
2017-Nov-18 11:25N 41°11' W 008°42'0 0.0
2017-Nov-18 10:55N 41°11' W 008°42'0 0.0
2017-Nov-18 10:25N 41°11' W 008°42'0 0.0
2017-Nov-18 09:55N 41°11' W 008°42'0 0.0
2017-Nov-18 09:25N 41°11' W 008°42'0 0.0
2017-Nov-18 09:00N 41°11' W 008°42'0 0.0
2017-Nov-18 08:30N 41°11' W 008°42'0 0.0
2017-Nov-18 08:00N 41°11' W 008°42'0 0.0
2017-Nov-18 07:30N 41°11' W 008°42'0 0.0
2017-Nov-18 07:00N 41°11' W 008°42'0 0.0
2017-Nov-18 06:30N 41°11' W 008°42'2 3.9
2017-Nov-18 06:01N 41°10' W 008°44'816.4
2017-Nov-18 05:31N 41°17' W 008°51'52114.1
2017-Nov-16 16:30N 49°24' W 004°28'5515.2
2017-Nov-16 12:51N 49°52' W 003°15'618.1
2017-Nov-16 12:30N 49°56' W 003°06'918.0
2017-Nov-16 12:00N 49°60' W 002°54'1118.1
2017-Nov-16 11:23N 50°03' W 002°37'2217.3
2017-Nov-16 10:07N 50°10' W 002°04'216.8
2017-Nov-16 10:00N 50°10' W 002°02'816.3
2017-Nov-16 09:30N 50°12' W 001°49'815.5
2017-Nov-16 09:00N 50°14' W 001°38'714.7
2017-Nov-16 08:31N 50°16' W 001°27'2313.6
2017-Nov-16 06:48N 50°24' W 000°52'913.3
2017-Nov-16 06:08N 50°26' W 000°39'213.8
2017-Nov-16 05:59N 50°26' W 000°35'714.0
2017-Nov-16 05:30N 50°27' W 000°25'714.9
2017-Nov-16 05:00N 50°29' W 000°14'815.8
2017-Nov-16 04:30N 50°31' W 000°02'816.5
2017-Nov-16 04:00N 50°33' E 000°11'917.1
2017-Nov-16 03:30N 50°35' E 000°24'917.3
2017-Nov-16 03:01N 50°38' E 000°36'917.4
2017-Nov-16 02:30N 50°44' E 000°47'917.2
2017-Nov-16 02:00N 50°49' E 000°58'816.7
2017-Nov-16 01:30N 50°54' E 001°09'816.0
2017-Nov-16 01:00N 50°59' E 001°18'815.3
2017-Nov-16 00:30N 51°04' E 001°28'714.0
2017-Nov-16 00:00N 51°08' E 001°37'713.5
2017-Nov-15 23:30N 51°13' E 001°44'714.0
2017-Nov-15 23:00N 51°19' E 001°50'714.7
2017-Nov-15 22:30N 51°25' E 001°56'815.2
2017-Nov-15 22:00N 51°31' E 002°05'6415.6
2017-Nov-15 17:54N 52°03' E 003°34'716.8
2017-Nov-15 17:30N 52°02' E 003°45'815.9
2017-Nov-15 17:00N 52°02' E 003°58'714.1
2017-Nov-15 16:30N 51°58' E 004°07'4 8.6
2017-Nov-15 16:00N 51°55' E 004°13'2 3.5
2017-Nov-15 15:30N 51°54' E 004°14'0 0.2
2017-Nov-15 15:00N 51°54' E 004°14'0 0.0
2017-Nov-15 14:30N 51°54' E 004°14'0 0.0
2017-Nov-15 13:54N 51°54' E 004°14'0 0.0
2017-Nov-15 13:23N 51°54' E 004°14'0 0.0
2017-Nov-15 12:59N 51°54' E 004°14'0 0.0
2017-Nov-15 12:29N 51°54' E 004°14'0 0.0
2017-Nov-15 11:59N 51°54' E 004°14'0 0.0
2017-Nov-15 11:28N 51°54' E 004°14'0 0.0
2017-Nov-15 10:58N 51°54' E 004°14'0 0.0
2017-Nov-15 10:28N 51°54' E 004°14'0 0.0
2017-Nov-15 09:52N 51°54' E 004°14'0 0.0
2017-Nov-15 09:15N 51°54' E 004°14'0 0.0
2017-Nov-15 08:51N 51°54' E 004°14'0 0.0
2017-Nov-15 08:23N 51°54' E 004°14'0 0.0
2017-Nov-15 07:57N 51°54' E 004°14'0 0.0
2017-Nov-15 07:27N 51°54' E 004°14'0 0.0
2017-Nov-15 06:50N 51°54' E 004°14'0 0.0
2017-Nov-15 06:26N 51°54' E 004°14'0 0.0
2017-Nov-15 05:56N 51°54' E 004°14'0 0.0
2017-Nov-15 05:26N 51°54' E 004°14'0 0.0
2017-Nov-15 04:56N 51°54' E 004°14'0 0.0
2017-Nov-15 04:25N 51°54' E 004°14'0 0.0
2017-Nov-15 03:55N 51°54' E 004°14'0 0.0
2017-Nov-15 03:25N 51°54' E 004°14'0 0.0
2017-Nov-15 03:01N 51°54' E 004°14'1 1.6
2017-Nov-15 02:30N 51°54' E 004°14'4 7.9
2017-Nov-15 02:00N 51°57' E 004°09'612.7
2017-Nov-15 01:30N 51°60' E 003°60'713.8
2017-Nov-15 01:00N 51°59' E 003°48'815.0
2017-Nov-15 00:29N 51°58' E 003°36'816.0
2017-Nov-14 23:59N 51°56' E 003°24'4815.8
2017-Nov-14 20:59N 51°31' E 002°18'817.2
2017-Nov-14 20:30N 51°24' E 002°11'816.6
2017-Nov-14 20:00N 51°17' E 002°06'917.6
2017-Nov-14 19:30N 51°11' E 001°55'917.7
2017-Nov-14 19:00N 51°06' E 001°44'816.9
2017-Nov-14 18:30N 51°00' E 001°34'2116.1
2017-Nov-14 17:11N 50°42' E 001°17'1217.1
2017-Nov-14 16:28N 50°33' E 001°04'917.3
2017-Nov-14 15:57N 50°28' E 000°51'917.7
2017-Nov-14 15:27N 50°26' E 000°38'1017.5
2017-Nov-14 14:54N 50°24' E 000°24'717.3
2017-Nov-14 14:30N 50°22' E 000°13'917.1
2017-Nov-14 14:00N 50°20' E 000°00'916.9
2017-Nov-14 13:30N 50°18' W 000°13'2316.3
2017-Nov-14 12:06N 50°13' W 000°48'215.7
2017-Nov-14 11:59N 50°13' W 000°51'715.6
2017-Nov-14 11:30N 50°11' W 001°02'815.4
2017-Nov-14 11:00N 50°09' W 001°13'815.2
2017-Nov-14 10:30N 50°07' W 001°25'815.5
2017-Nov-14 09:59N 50°04' W 001°37'715.5
2017-Nov-14 09:30N 50°02' W 001°48'815.8
2017-Nov-14 09:00N 49°59' W 001°59'2016.8
2017-Nov-14 07:50N 49°53' W 002°28'817.5
2017-Nov-14 07:23N 49°51' W 002°40'717.4
2017-Nov-14 07:00N 49°49' W 002°50'1117.6
2017-Nov-14 06:23N 49°43' W 003°04'817.5
2017-Nov-14 05:55N 49°40' W 003°16'817.7
2017-Nov-14 05:29N 49°36' W 003°26'917.6
2017-Nov-14 04:58N 49°32' W 003°39'817.5
2017-Nov-14 04:30N 49°28' W 003°50'917.7
2017-Nov-14 04:00N 49°23' W 004°00'917.7
2017-Nov-14 03:30N 49°17' W 004°12'917.9
2017-Nov-14 03:00N 49°12' W 004°23'918.2
2017-Nov-14 02:29N 49°07' W 004°35'918.0
2017-Nov-14 02:00N 49°03' W 004°47'1018.3
2017-Nov-14 01:27N 48°59' W 005°01'918.3
2017-Nov-14 00:56N 48°54' W 005°13'1218.4
2017-Nov-14 00:16N 48°48' W 005°29'618.0
2017-Nov-13 23:56N 48°45' W 005°37'918.3
2017-Nov-13 23:27N 48°36' W 005°42'1017.1
2017-Nov-13 22:53N 48°27' W 005°46'1316.3
2017-Nov-13 22:04N 48°14' W 005°41'216.0
2017-Nov-13 21:56N 48°12' W 005°40'29514.7
2017-Nov-13 01:48N 43°27' W 003°49'0 0.0
2017-Nov-13 01:18N 43°27' W 003°49'0 0.0
2017-Nov-13 00:54N 43°27' W 003°49'0 0.0
2017-Nov-13 00:17N 43°27' W 003°49'0 0.0
2017-Nov-12 23:59N 43°27' W 003°49'0 0.0
2017-Nov-12 23:29N 43°27' W 003°49'0 0.0
2017-Nov-12 22:59N 43°27' W 003°49'0 0.0
2017-Nov-12 22:23N 43°27' W 003°49'0 0.0
2017-Nov-12 21:40N 43°27' W 003°49'0 0.0
2017-Nov-12 21:30N 43°27' W 003°49'0 0.9
2017-Nov-12 21:00N 43°27' W 003°48'4 7.1
2017-Nov-12 20:30N 43°30' W 003°45'714.2
2017-Nov-12 20:00N 43°33' W 003°54'816.7
2017-Nov-12 19:30N 43°35' W 004°05'816.7
2017-Nov-12 19:00N 43°36' W 004°16'12216.5
2017-Nov-12 11:35N 43°51' W 007°04'316.2
2017-Nov-12 11:26N 43°51' W 007°08'716.6
2017-Nov-12 11:00N 43°51' W 007°18'816.3
2017-Nov-12 10:30N 43°52' W 007°29'816.0
2017-Nov-12 10:00N 43°52' W 007°40'1016.2
2017-Nov-12 09:24N 43°52' W 007°53'715.6
2017-Nov-12 08:59N 43°51' W 008°02'15912.0
2017-Nov-11 19:41N 41°15' W 008°49'316.1
2017-Nov-11 19:31N 41°13' W 008°47'4 8.2
2017-Nov-11 19:01N 41°11' W 008°42'0 0.3
2017-Nov-11 18:26N 41°11' W 008°42'0 0.0
2017-Nov-11 17:55N 41°11' W 008°42'0 0.0
2017-Nov-11 17:25N 41°11' W 008°42'0 0.0
2017-Nov-11 16:55N 41°11' W 008°42'0 0.0
2017-Nov-11 16:25N 41°11' W 008°42'0 0.0
2017-Nov-11 15:55N 41°11' W 008°42'0 0.0
2017-Nov-11 15:30N 41°11' W 008°42'0 0.0
2017-Nov-11 15:00N 41°11' W 008°42'0 0.0
2017-Nov-11 14:30N 41°11' W 008°42'0 0.0
2017-Nov-11 14:00N 41°11' W 008°42'0 0.0
2017-Nov-11 13:29N 41°11' W 008°42'0 0.0
2017-Nov-11 12:59N 41°11' W 008°42'0 0.0
2017-Nov-11 12:29N 41°11' W 008°42'0 0.0
2017-Nov-11 11:59N 41°11' W 008°42'0 0.0
2017-Nov-11 11:29N 41°11' W 008°42'0 0.0
2017-Nov-11 10:58N 41°11' W 008°42'0 0.0
2017-Nov-11 10:28N 41°11' W 008°42'0 0.0
2017-Nov-11 10:00N 41°11' W 008°42'0 0.4
2017-Nov-11 09:30N 41°11' W 008°42'3 5.0
2017-Nov-11 09:00N 41°11' W 008°46'816.5
2017-Nov-11 08:31N 41°17' W 008°52'38915.2
2017-Nov-10 06:57N 47°36' W 006°47'915.4
2017-Nov-10 06:22N 47°44' W 006°40'915.3
2017-Nov-10 05:46N 47°52' W 006°34'415.3
2017-Nov-10 05:31N 47°55' W 006°31'915.5
2017-Nov-10 04:57N 48°03' W 006°25'715.7
2017-Nov-10 04:30N 48°09' W 006°20'1016.1
2017-Nov-10 03:54N 48°17' W 006°13'1916.8
2017-Nov-10 02:45N 48°34' W 005°59'2316.6
2017-Nov-10 01:21N 48°55' W 005°42'  

Dump ship's entire track history